Terminal Aerodrome Forecast
Issued by NWS

Home | Current Version | Previous Version | Text Only | Print | Product List | Glossary On
Versions: 1 2 3 4 5 6 7 8 9 10 11 12 13 14 15 16 17 18 19 20 21 22 23 24 25 26 27 28 29 30 31 32 33 34 35 36 37 38
000
FTUS46 KOTX 262331
TAFSFF
TAF
KSFF 262331Z 2700/2724 00000KT 4SM BR OVC005
     FM270500 19003KT 2SM BR OVC003
     FM271600 00000KT 1SM -SN BR OVC008
      TEMPO 2717/2720 1/2SM SN FG OVC005=

USA.gov is the U.S. government's official web portal to all federal, state and local government web resources and services.